Aviation Digital Data Service (ADDS)

Output produced by METARs form (0842 UTC 24 March 2019)
found at http://www.aviationweather.gov/metar/data/
 
METAR text: HKJK 240830Z 05012KT 9999 SCT023 BKN300 26/09 Q1021 NOSIG
Conditions at: HKJK (NAIROBI/JOMO KEN, KE) observed 0830 UTC 24 March 2019
Temperature: 26.0°C (79°F)
Dewpoint: 9.0°C (48°F) [RH = 34%]
Pressure (altimeter): 30.15 inches Hg (1021.0 mb)
Winds: from the NE (50 degrees) at 14 MPH (12 knots; 6.2 m/s)
Visibility: 6 or more miles (10+ km)
Ceiling: 30000 feet AGL
Clouds: scattered clouds at 2300 feet AGL
broken clouds at 30000 feet AGL
Weather: no significant weather observed at this time

METAR text: HKJK 240330Z 06004KT 9999 SCT016 17/15 Q1021 NOSIG
Conditions at: HKJK (NAIROBI/JOMO KEN, KE) observed 0330 UTC 24 March 2019
Temperature: 17.0°C (63°F)
Dewpoint: 15.0°C (59°F) [RH = 88%]
Pressure (altimeter): 30.15 inches Hg (1021.0 mb)
Winds: from the ENE (60 degrees) at 5 MPH (4 knots; 2.1 m/s)
Visibility: 6 or more miles (10+ km)
Ceiling: at least 12,000 feet AGL
Clouds: scattered clouds at 1600 feet AGL
Weather: no significant weather observed at this time

METAR text: HKJK 231630Z 08013KT 9999 FEW018 25/10 Q1018 NOSIG
Conditions at: HKJK (NAIROBI/JOMO KEN, KE) observed 1630 UTC 23 March 2019
Temperature: 25.0°C (77°F)
Dewpoint: 10.0°C (50°F) [RH = 39%]
Pressure (altimeter): 30.06 inches Hg (1018.0 mb)
Winds: from the E (80 degrees) at 15 MPH (13 knots; 6.7 m/s)
Visibility: 6 or more miles (10+ km)
Ceiling: at least 12,000 feet AGL
Clouds: few clouds at 1800 feet AGL
Weather: no significant weather observed at this time

METAR text: HKJK 231200Z 08014KT 9999 SCT028 29/10 Q1018 NOSIG
Conditions at: HKJK (NAIROBI/JOMO KEN, KE) observed 1200 UTC 23 March 2019
Temperature: 29.0°C (84°F)
Dewpoint: 10.0°C (50°F) [RH = 31%]
Pressure (altimeter): 30.06 inches Hg (1018.0 mb)
Winds: from the E (80 degrees) at 16 MPH (14 knots; 7.2 m/s)
Visibility: 6 or more miles (10+ km)
Ceiling: at least 12,000 feet AGL
Clouds: scattered clouds at 2800 feet AGL
Weather: no significant weather observed at this time

METAR text: HKJK 231130Z 08011G22KT 9999 SCT027 28/11 Q1018 NOSIG
Conditions at: HKJK (NAIROBI/JOMO KEN, KE) observed 1130 UTC 23 March 2019
Temperature: 28.0°C (82°F)
Dewpoint: 11.0°C (52°F) [RH = 35%]
Pressure (altimeter): 30.06 inches Hg (1018.0 mb)
Winds: from the E (80 degrees) at 13 MPH (11 knots; 5.7 m/s)
gusting to 25 MPH (22 knots; 11.3 m/s)
Visibility: 6 or more miles (10+ km)
Ceiling: at least 12,000 feet AGL
Clouds: scattered clouds at 2700 feet AGL
Weather: no significant weather observed at this time

METAR text: HKJK 231100Z 08011KT 9999 SCT027 29/10 Q1019 NOSIG
Conditions at: HKJK (NAIROBI/JOMO KEN, KE) observed 1100 UTC 23 March 2019
Temperature: 29.0°C (84°F)
Dewpoint: 10.0°C (50°F) [RH = 31%]
Pressure (altimeter): 30.09 inches Hg (1019.0 mb)
Winds: from the E (80 degrees) at 13 MPH (11 knots; 5.7 m/s)
Visibility: 6 or more miles (10+ km)
Ceiling: at least 12,000 feet AGL
Clouds: scattered clouds at 2700 feet AGL
Weather: no significant weather observed at this time

METAR text: HKJK 231030Z 03011KT 9999 SCT026 27/11 Q1019 NOSIG
Conditions at: HKJK (NAIROBI/JOMO KEN, KE) observed 1030 UTC 23 March 2019
Temperature: 27.0°C (81°F)
Dewpoint: 11.0°C (52°F) [RH = 37%]
Pressure (altimeter): 30.09 inches Hg (1019.0 mb)
Winds: from the NNE (30 degrees) at 13 MPH (11 knots; 5.7 m/s)
Visibility: 6 or more miles (10+ km)
Ceiling: at least 12,000 feet AGL
Clouds: scattered clouds at 2600 feet AGL
Weather: no significant weather observed at this time

METAR text: HKJK 231000Z 07011KT 9999 SCT026 27/11 Q1020 NOSIG
Conditions at: HKJK (NAIROBI/JOMO KEN, KE) observed 1000 UTC 23 March 2019
Temperature: 27.0°C (81°F)
Dewpoint: 11.0°C (52°F) [RH = 37%]
Pressure (altimeter): 30.12 inches Hg (1020.0 mb)
Winds: from the ENE (70 degrees) at 13 MPH (11 knots; 5.7 m/s)
Visibility: 6 or more miles (10+ km)
Ceiling: at least 12,000 feet AGL
Clouds: scattered clouds at 2600 feet AGL
Weather: no significant weather observed at this time

METAR text: HKJK 230930Z 06012KT 9999 SCT025 27/12 Q1021 NOSIG
Conditions at: HKJK (NAIROBI/JOMO KEN, KE) observed 0930 UTC 23 March 2019
Temperature: 27.0°C (81°F)
Dewpoint: 12.0°C (54°F) [RH = 39%]
Pressure (altimeter): 30.15 inches Hg (1021.0 mb)
Winds: from the ENE (60 degrees) at 14 MPH (12 knots; 6.2 m/s)
Visibility: 6 or more miles (10+ km)
Ceiling: at least 12,000 feet AGL
Clouds: scattered clouds at 2500 feet AGL
Weather: no significant weather observed at this time

METAR text: HKJK 230900Z 06014KT 9999 SCT025 27/12 Q1021 NOSIG
Conditions at: HKJK (NAIROBI/JOMO KEN, KE) observed 0900 UTC 23 March 2019
Temperature: 27.0°C (81°F)
Dewpoint: 12.0°C (54°F) [RH = 39%]
Pressure (altimeter): 30.15 inches Hg (1021.0 mb)
Winds: from the ENE (60 degrees) at 16 MPH (14 knots; 7.2 m/s)
Visibility: 6 or more miles (10+ km)
Ceiling: at least 12,000 feet AGL
Clouds: scattered clouds at 2500 feet AGL
Weather: no significant weather observed at this time

METAR text: HKJK 230830Z 04014KT 9999 SCT024 26/13 Q1021 NOSIG
Conditions at: HKJK (NAIROBI/JOMO KEN, KE) observed 0830 UTC 23 March 2019
Temperature: 26.0°C (79°F)
Dewpoint: 13.0°C (55°F) [RH = 45%]
Pressure (altimeter): 30.15 inches Hg (1021.0 mb)
Winds: from the NE (40 degrees) at 16 MPH (14 knots; 7.2 m/s)
Visibility: 6 or more miles (10+ km)
Ceiling: at least 12,000 feet AGL
Clouds: scattered clouds at 2400 feet AGL
Weather: no significant weather observed at this time

METAR text: HKJK 230800Z 03014KT 9999 SCT023 25/13 Q1022 NOSIG
Conditions at: HKJK (NAIROBI/JOMO KEN, KE) observed 0800 UTC 23 March 2019
Temperature: 25.0°C (77°F)
Dewpoint: 13.0°C (55°F) [RH = 47%]
Pressure (altimeter): 30.18 inches Hg (1022.0 mb)
Winds: from the NNE (30 degrees) at 16 MPH (14 knots; 7.2 m/s)
Visibility: 6 or more miles (10+ km)
Ceiling: at least 12,000 feet AGL
Clouds: scattered clouds at 2300 feet AGL
Weather: no significant weather observed at this time

METAR text: HKJK 230730Z 04012KT 9999 SCT022 24/14 Q1022 NOSIG
Conditions at: HKJK (NAIROBI/JOMO KEN, KE) observed 0730 UTC 23 March 2019
Temperature: 24.0°C (75°F)
Dewpoint: 14.0°C (57°F) [RH = 54%]
Pressure (altimeter): 30.18 inches Hg (1022.0 mb)
Winds: from the NE (40 degrees) at 14 MPH (12 knots; 6.2 m/s)
Visibility: 6 or more miles (10+ km)
Ceiling: at least 12,000 feet AGL
Clouds: scattered clouds at 2200 feet AGL
Weather: no significant weather observed at this time

METAR text: HKJK 230700Z 04009KT 9999 SCT022 23/14 Q1022 NOSIG
Conditions at: HKJK (NAIROBI/JOMO KEN, KE) observed 0700 UTC 23 March 2019
Temperature: 23.0°C (73°F)
Dewpoint: 14.0°C (57°F) [RH = 57%]
Pressure (altimeter): 30.18 inches Hg (1022.0 mb)
Winds: from the NE (40 degrees) at 10 MPH (9 knots; 4.6 m/s)
Visibility: 6 or more miles (10+ km)
Ceiling: at least 12,000 feet AGL
Clouds: scattered clouds at 2200 feet AGL
Weather: no significant weather observed at this time

METAR text: HKJK 230630Z 04009KT 9999 BKN021 22/15 Q1022 NOSIG
Conditions at: HKJK (NAIROBI/JOMO KEN, KE) observed 0630 UTC 23 March 2019
Temperature: 22.0°C (72°F)
Dewpoint: 15.0°C (59°F) [RH = 65%]
Pressure (altimeter): 30.18 inches Hg (1022.0 mb)
Winds: from the NE (40 degrees) at 10 MPH (9 knots; 4.6 m/s)
Visibility: 6 or more miles (10+ km)
Ceiling: 2100 feet AGL
Clouds: broken clouds at 2100 feet AGL
Weather: no significant weather observed at this time

METAR text: HKJK 230600Z 03007KT 9999 BKN020 20/16 Q1022 NOSIG
Conditions at: HKJK (NAIROBI/JOMO KEN, KE) observed 0600 UTC 23 March 2019
Temperature: 20.0°C (68°F)
Dewpoint: 16.0°C (61°F) [RH = 78%]
Pressure (altimeter): 30.18 inches Hg (1022.0 mb)
Winds: from the NNE (30 degrees) at 8 MPH (7 knots; 3.6 m/s)
Visibility: 6 or more miles (10+ km)
Ceiling: 2000 feet AGL
Clouds: broken clouds at 2000 feet AGL
Weather: no significant weather observed at this time

METAR text: HKJK 230530Z 07007KT 9999 SCT018 19/16 Q1021 NOSIG
Conditions at: HKJK (NAIROBI/JOMO KEN, KE) observed 0530 UTC 23 March 2019
Temperature: 19.0°C (66°F)
Dewpoint: 16.0°C (61°F) [RH = 83%]
Pressure (altimeter): 30.15 inches Hg (1021.0 mb)
Winds: from the ENE (70 degrees) at 8 MPH (7 knots; 3.6 m/s)
Visibility: 6 or more miles (10+ km)
Ceiling: at least 12,000 feet AGL
Clouds: scattered clouds at 1800 feet AGL
Weather: no significant weather observed at this time

METAR text: HKJK 230500Z 07007KT 9999 FEW010 SCT018 19/16 Q1021 NOSIG
Conditions at: HKJK (NAIROBI/JOMO KEN, KE) observed 0500 UTC 23 March 2019
Temperature: 19.0°C (66°F)
Dewpoint: 16.0°C (61°F) [RH = 83%]
Pressure (altimeter): 30.15 inches Hg (1021.0 mb)
Winds: from the ENE (70 degrees) at 8 MPH (7 knots; 3.6 m/s)
Visibility: 6 or more miles (10+ km)
Ceiling: at least 12,000 feet AGL
Clouds: few clouds at 1000 feet AGL
scattered clouds at 1800 feet AGL
Weather: no significant weather observed at this time

METAR text: HKJK 230430Z 01003KT 9999 SCT018 18/16 Q1021 NOSIG
Conditions at: HKJK (NAIROBI/JOMO KEN, KE) observed 0430 UTC 23 March 2019
Temperature: 18.0°C (64°F)
Dewpoint: 16.0°C (61°F) [RH = 88%]
Pressure (altimeter): 30.15 inches Hg (1021.0 mb)
Winds: from the N (10 degrees) at 3 MPH (3 knots; 1.5 m/s)
Visibility: 6 or more miles (10+ km)
Ceiling: at least 12,000 feet AGL
Clouds: scattered clouds at 1800 feet AGL
Weather: no significant weather observed at this time

METAR text: HKJK 230400Z 01004KT 9999 FEW018 17/15 Q1020 NOSIG
Conditions at: HKJK (NAIROBI/JOMO KEN, KE) observed 0400 UTC 23 March 2019
Temperature: 17.0°C (63°F)
Dewpoint: 15.0°C (59°F) [RH = 88%]
Pressure (altimeter): 30.12 inches Hg (1020.0 mb)
Winds: from the N (10 degrees) at 5 MPH (4 knots; 2.1 m/s)
Visibility: 6 or more miles (10+ km)
Ceiling: at least 12,000 feet AGL
Clouds: few clouds at 1800 feet AGL
Weather: no significant weather observed at this time

METAR text: HKJK 230330Z 01004KT 9999 FEW016 16/15 Q1020 NOSIG
Conditions at: HKJK (NAIROBI/JOMO KEN, KE) observed 0330 UTC 23 March 2019
Temperature: 16.0°C (61°F)
Dewpoint: 15.0°C (59°F) [RH = 94%]
Pressure (altimeter): 30.12 inches Hg (1020.0 mb)
Winds: from the N (10 degrees) at 5 MPH (4 knots; 2.1 m/s)
Visibility: 6 or more miles (10+ km)
Ceiling: at least 12,000 feet AGL
Clouds: few clouds at 1600 feet AGL
Weather: no significant weather observed at this time

METAR text: HKJK 230300Z 02004KT 9999 FEW016 16/15 Q1020 NOSIG
Conditions at: HKJK (NAIROBI/JOMO KEN, KE) observed 0300 UTC 23 March 2019
Temperature: 16.0°C (61°F)
Dewpoint: 15.0°C (59°F) [RH = 94%]
Pressure (altimeter): 30.12 inches Hg (1020.0 mb)
Winds: from the NNE (20 degrees) at 5 MPH (4 knots; 2.1 m/s)
Visibility: 6 or more miles (10+ km)
Ceiling: at least 12,000 feet AGL
Clouds: few clouds at 1600 feet AGL
Weather: no significant weather observed at this time

METAR text: HKJK 230230Z 04006KT 9999 FEW016 16/15 Q1020 NOSIG
Conditions at: HKJK (NAIROBI/JOMO KEN, KE) observed 0230 UTC 23 March 2019
Temperature: 16.0°C (61°F)
Dewpoint: 15.0°C (59°F) [RH = 94%]
Pressure (altimeter): 30.12 inches Hg (1020.0 mb)
Winds: from the NE (40 degrees) at 7 MPH (6 knots; 3.1 m/s)
Visibility: 6 or more miles (10+ km)
Ceiling: at least 12,000 feet AGL
Clouds: few clouds at 1600 feet AGL
Weather: no significant weather observed at this time

METAR text: HKJK 230200Z 04005KT 9999 FEW016 16/14 Q1020 NOSIG
Conditions at: HKJK (NAIROBI/JOMO KEN, KE) observed 0200 UTC 23 March 2019
Temperature: 16.0°C (61°F)
Dewpoint: 14.0°C (57°F) [RH = 88%]
Pressure (altimeter): 30.12 inches Hg (1020.0 mb)
Winds: from the NE (40 degrees) at 6 MPH (5 knots; 2.6 m/s)
Visibility: 6 or more miles (10+ km)
Ceiling: at least 12,000 feet AGL
Clouds: few clouds at 1600 feet AGL
Weather: no significant weather observed at this time

METAR text: HKJK 230130Z 05007KT 9999 SCT016 18/15 Q1020 NOSIG
Conditions at: HKJK (NAIROBI/JOMO KEN, KE) observed 0130 UTC 23 March 2019
Temperature: 18.0°C (64°F)
Dewpoint: 15.0°C (59°F) [RH = 83%]
Pressure (altimeter): 30.12 inches Hg (1020.0 mb)
Winds: from the NE (50 degrees) at 8 MPH (7 knots; 3.6 m/s)
Visibility: 6 or more miles (10+ km)
Ceiling: at least 12,000 feet AGL
Clouds: scattered clouds at 1600 feet AGL
Weather: no significant weather observed at this time

METAR text: HKJK 230100Z 05007KT 9999 SCT016 18/15 Q1020 NOSIG
Conditions at: HKJK (NAIROBI/JOMO KEN, KE) observed 0100 UTC 23 March 2019
Temperature: 18.0°C (64°F)
Dewpoint: 15.0°C (59°F) [RH = 83%]
Pressure (altimeter): 30.12 inches Hg (1020.0 mb)
Winds: from the NE (50 degrees) at 8 MPH (7 knots; 3.6 m/s)
Visibility: 6 or more miles (10+ km)
Ceiling: at least 12,000 feet AGL
Clouds: scattered clouds at 1600 feet AGL
Weather: no significant weather observed at this time

METAR text: HKJK 230030Z 04007KT 9999 SCT017 19/15 Q1020 NOSIG
Conditions at: HKJK (NAIROBI/JOMO KEN, KE) observed 0030 UTC 23 March 2019
Temperature: 19.0°C (66°F)
Dewpoint: 15.0°C (59°F) [RH = 78%]
Pressure (altimeter): 30.12 inches Hg (1020.0 mb)
Winds: from the NE (40 degrees) at 8 MPH (7 knots; 3.6 m/s)
Visibility: 6 or more miles (10+ km)
Ceiling: at least 12,000 feet AGL
Clouds: scattered clouds at 1700 feet AGL
Weather: no significant weather observed at this time

METAR text: HKJK 230000Z 05008KT 9999 SCT017 19/15 Q1020 NOSIG
Conditions at: HKJK (NAIROBI/JOMO KEN, KE) observed 0000 UTC 23 March 2019
Temperature: 19.0°C (66°F)
Dewpoint: 15.0°C (59°F) [RH = 78%]
Pressure (altimeter): 30.12 inches Hg (1020.0 mb)
Winds: from the NE (50 degrees) at 9 MPH (8 knots; 4.1 m/s)
Visibility: 6 or more miles (10+ km)
Ceiling: at least 12,000 feet AGL
Clouds: scattered clouds at 1700 feet AGL
Weather: no significant weather observed at this time

METAR text: HKJK 222330Z 05008KT 9999 SCT021 18/15 Q1020 NOSIG
Conditions at: HKJK (NAIROBI/JOMO KEN, KE) observed 2330 UTC 22 March 2019
Temperature: 18.0°C (64°F)
Dewpoint: 15.0°C (59°F) [RH = 83%]
Pressure (altimeter): 30.12 inches Hg (1020.0 mb)
Winds: from the NE (50 degrees) at 9 MPH (8 knots; 4.1 m/s)
Visibility: 6 or more miles (10+ km)
Ceiling: at least 12,000 feet AGL
Clouds: scattered clouds at 2100 feet AGL
Weather: no significant weather observed at this time

METAR text: HKJK 222200Z 07008KT 9999 FEW026 20/15 Q1021 NOSIG
Conditions at: HKJK (NAIROBI/JOMO KEN, KE) observed 2200 UTC 22 March 2019
Temperature: 20.0°C (68°F)
Dewpoint: 15.0°C (59°F) [RH = 73%]
Pressure (altimeter): 30.15 inches Hg (1021.0 mb)
Winds: from the ENE (70 degrees) at 9 MPH (8 knots; 4.1 m/s)
Visibility: 6 or more miles (10+ km)
Ceiling: at least 12,000 feet AGL
Clouds: few clouds at 2600 feet AGL
Weather: no significant weather observed at this time

METAR text: HKJK 222130Z 07010KT 9999 FEW026 20/15 Q1021 NOSIG
Conditions at: HKJK (NAIROBI/JOMO KEN, KE) observed 2130 UTC 22 March 2019
Temperature: 20.0°C (68°F)
Dewpoint: 15.0°C (59°F) [RH = 73%]
Pressure (altimeter): 30.15 inches Hg (1021.0 mb)
Winds: from the ENE (70 degrees) at 12 MPH (10 knots; 5.1 m/s)
Visibility: 6 or more miles (10+ km)
Ceiling: at least 12,000 feet AGL
Clouds: few clouds at 2600 feet AGL
Weather: no significant weather observed at this time

METAR text: HKJK 222100Z 07010KT 9999 SCT026 21/15 Q1021 NOSIG
Conditions at: HKJK (NAIROBI/JOMO KEN, KE) observed 2100 UTC 22 March 2019
Temperature: 21.0°C (70°F)
Dewpoint: 15.0°C (59°F) [RH = 69%]
Pressure (altimeter): 30.15 inches Hg (1021.0 mb)
Winds: from the ENE (70 degrees) at 12 MPH (10 knots; 5.1 m/s)
Visibility: 6 or more miles (10+ km)
Ceiling: at least 12,000 feet AGL
Clouds: scattered clouds at 2600 feet AGL
Weather: no significant weather observed at this time

Forecast for: HKJK (NAIROBI/JOMO KEN, KE)
Text: TAF HKJK 240500Z 2406/2512 06005KT 9999 BKN026
Forecast period: 0600 to 0800 UTC 24 March 2019
Forecast type: FROM: standard forecast or significant change
Winds: from the ENE (60 degrees) at 6 MPH (5 knots; 2.6 m/s)
Visibility: 6 or more miles 10+ km)
Ceiling: 2600 feet AGL
Clouds: broken clouds at 2600 feet AGL
Weather: no significant weather forecast for this period
Text: BECMG 2408/2411 FEW027CB
Forecast period: 0800 to 2000 UTC 24 March 2019
Forecast type: BECOMING: Conditions expected to become as follows by 1100 UTC 24 March 2019
Winds: from the ENE (60 degrees) at 6 MPH (5 knots; 2.6 m/s)
Visibility: 6 or more miles 10+ km)
Ceiling: at least 12,000 feet AGL
Clouds: few clouds at 2700 feet AGL
Weather: no significant weather forecast for this period
Text: TEMPO 2412/2418 07015KT -SHRA FEW026CB SCT027
Forecast period: 1200 to 1800 UTC 24 March 2019
Forecast type: TEMPORARY: The following changes expected for less than half the time period
Winds: from the ENE (70 degrees) at 17 MPH (15 knots; 7.7 m/s)
Visibility: missing
Ceiling: at least 12,000 feet AGL
Clouds: few clouds at 2600 feet AGL
scattered clouds at 2700 feet AGL
Weather: -SHRA  (light rain showers)
Text: BECMG 2420/2423 06005KT CAVOK
Forecast period: 2000 UTC 24 March 2019 to 1200 UTC 25 March 2019
Forecast type: BECOMING: Conditions expected to become as follows by 2300 UTC 24 March 2019
Winds: from the ENE (60 degrees) at 6 MPH (5 knots; 2.6 m/s)
Visibility: 6 or more miles 10+ km)
Ceiling: unknown
Clouds: missing
Weather: NSW  (no significant weather)